sensor_id;sensor_type;location;lat;lon;timestamp;P1;durP1;ratioP1;P2;durP2;ratioP2
9960;SDS011;5021;51.506;11.320;2023-01-05T00:02:17;10.37;;;3.10;;
9960;SDS011;5021;51.506;11.320;2023-01-05T00:04:44;6.03;;;2.57;;
9960;SDS011;5021;51.506;11.320;2023-01-05T00:07:10;6.57;;;2.80;;
9960;SDS011;5021;51.506;11.320;2023-01-05T00:09:36;8.90;;;2.80;;
9960;SDS011;5021;51.506;11.320;2023-01-05T00:12:03;6.23;;;3.10;;
9960;SDS011;5021;51.506;11.320;2023-01-05T00:14:47;6.30;;;2.43;;
9960;SDS011;5021;51.506;11.320;2023-01-05T00:17:32;10.67;;;3.13;;
9960;SDS011;5021;51.506;11.320;2023-01-05T00:20:18;8.87;;;3.17;;
9960;SDS011;5021;51.506;11.320;2023-01-05T00:23:03;7.20;;;2.63;;
9960;SDS011;5021;51.506;11.320;2023-01-05T00:25:30;9.03;;;3.37;;
9960;SDS011;5021;51.506;11.320;2023-01-05T00:27:57;11.03;;;3.20;;
9960;SDS011;5021;51.506;11.320;2023-01-05T00:30:24;9.47;;;3.20;;
9960;SDS011;5021;51.506;11.320;2023-01-05T00:32:51;8.23;;;3.37;;
9960;SDS011;5021;51.506;11.320;2023-01-05T00:35:17;8.83;;;3.30;;
9960;SDS011;5021;51.506;11.320;2023-01-05T00:37:43;8.23;;;3.30;;
9960;SDS011;5021;51.506;11.320;2023-01-05T00:40:10;7.73;;;2.80;;
9960;SDS011;5021;51.506;11.320;2023-01-05T00:42:37;5.73;;;2.53;;
9960;SDS011;5021;51.506;11.320;2023-01-05T00:45:04;10.37;;;3.30;;
9960;SDS011;5021;51.506;11.320;2023-01-05T00:47:30;6.47;;;2.47;;
9960;SDS011;5021;51.506;11.320;2023-01-05T00:49:56;5.60;;;2.60;;
9960;SDS011;5021;51.506;11.320;2023-01-05T00:52:22;10.30;;;2.97;;
9960;SDS011;5021;51.506;11.320;2023-01-05T00:54:48;9.13;;;2.90;;
9960;SDS011;5021;51.506;11.320;2023-01-05T00:57:14;6.70;;;2.60;;
9960;SDS011;5021;51.506;11.320;2023-01-05T00:59:40;9.83;;;2.93;;
9960;SDS011;5021;51.506;11.320;2023-01-05T01:02:06;6.77;;;2.60;;
9960;SDS011;5021;51.506;11.320;2023-01-05T01:04:32;10.43;;;2.87;;
9960;SDS011;5021;51.506;11.320;2023-01-05T01:06:58;7.83;;;3.07;;
9960;SDS011;5021;51.506;11.320;2023-01-05T01:09:24;8.10;;;2.87;;
9960;SDS011;5021;51.506;11.320;2023-01-05T01:11:50;6.40;;;2.57;;
9960;SDS011;5021;51.506;11.320;2023-01-05T01:14:17;6.70;;;2.87;;
9960;SDS011;5021;51.506;11.320;2023-01-05T01:16:43;5.60;;;2.50;;
9960;SDS011;5021;51.506;11.320;2023-01-05T01:19:20;6.20;;;2.57;;
9960;SDS011;5021;51.506;11.320;2023-01-05T01:21:46;8.37;;;3.07;;
9960;SDS011;5021;51.506;11.320;2023-01-05T01:24:16;8.83;;;2.60;;
9960;SDS011;5021;51.506;11.320;2023-01-05T01:26:42;7.10;;;2.50;;
9960;SDS011;5021;51.506;11.320;2023-01-05T01:29:08;5.43;;;2.37;;
9960;SDS011;5021;51.506;11.320;2023-01-05T01:31:34;8.03;;;2.73;;
9960;SDS011;5021;51.506;11.320;2023-01-05T01:34:01;5.37;;;2.23;;
9960;SDS011;5021;51.506;11.320;2023-01-05T01:36:27;9.17;;;2.67;;
9960;SDS011;5021;51.506;11.320;2023-01-05T01:38:53;7.60;;;2.80;;
9960;SDS011;5021;51.506;11.320;2023-01-05T01:41:19;7.30;;;2.70;;
9960;SDS011;5021;51.506;11.320;2023-01-05T01:43:46;5.77;;;2.77;;
9960;SDS011;5021;51.506;11.320;2023-01-05T01:46:12;8.63;;;2.90;;
9960;SDS011;5021;51.506;11.320;2023-01-05T01:48:49;10.03;;;2.83;;
9960;SDS011;5021;51.506;11.320;2023-01-05T01:51:19;8.47;;;2.90;;
9960;SDS011;5021;51.506;11.320;2023-01-05T01:53:48;8.97;;;3.20;;
9960;SDS011;5021;51.506;11.320;2023-01-05T01:56:17;8.13;;;3.07;;
9960;SDS011;5021;51.506;11.320;2023-01-05T01:58:43;7.63;;;2.70;;
9960;SDS011;5021;51.506;11.320;2023-01-05T02:01:09;6.50;;;2.80;;
9960;SDS011;5021;51.506;11.320;2023-01-05T02:03:36;7.17;;;2.97;;
9960;SDS011;5021;51.506;11.320;2023-01-05T02:06:02;8.50;;;3.20;;
9960;SDS011;5021;51.506;11.320;2023-01-05T02:08:28;6.73;;;2.83;;
9960;SDS011;5021;51.506;11.320;2023-01-05T02:13:27;8.17;;;2.60;;
9960;SDS011;5021;51.506;11.320;2023-01-05T02:16:01;9.57;;;3.10;;
9960;SDS011;5021;51.506;11.320;2023-01-05T02:21:00;8.87;;;3.00;;
9960;SDS011;5021;51.506;11.320;2023-01-05T02:23:54;8.77;;;3.20;;
9960;SDS011;5021;51.506;11.320;2023-01-05T02:29:06;10.13;;;3.63;;
9960;SDS011;5021;51.506;11.320;2023-01-05T02:31:36;11.47;;;3.53;;
9960;SDS011;5021;51.506;11.320;2023-01-05T02:34:16;10.60;;;3.37;;
9960;SDS011;5021;51.506;11.320;2023-01-05T02:39:23;9.40;;;3.40;;
9960;SDS011;5021;51.506;11.320;2023-01-05T02:41:52;10.47;;;3.23;;
9960;SDS011;5021;51.506;11.320;2023-01-05T02:44:21;11.70;;;3.30;;
9960;SDS011;5021;51.506;11.320;2023-01-05T02:47:01;7.40;;;3.60;;
9960;SDS011;5021;51.506;11.320;2023-01-05T02:49:27;11.33;;;4.23;;
9960;SDS011;5021;51.506;11.320;2023-01-05T02:51:54;10.23;;;3.70;;
9960;SDS011;5021;51.506;11.320;2023-01-05T02:54:24;12.43;;;3.90;;
9960;SDS011;5021;51.506;11.320;2023-01-05T02:56:52;13.37;;;4.33;;
9960;SDS011;5021;51.506;11.320;2023-01-05T02:59:36;12.73;;;3.97;;
9960;SDS011;5021;51.506;11.320;2023-01-05T03:02:03;9.90;;;3.67;;
9960;SDS011;5021;51.506;11.320;2023-01-05T03:04:46;10.37;;;3.77;;
9960;SDS011;5021;51.506;11.320;2023-01-05T03:07:14;11.03;;;3.53;;
9960;SDS011;5021;51.506;11.320;2023-01-05T03:09:42;10.43;;;3.80;;
9960;SDS011;5021;51.506;11.320;2023-01-05T03:14:55;9.30;;;3.37;;
9960;SDS011;5021;51.506;11.320;2023-01-05T03:17:27;12.07;;;4.50;;
9960;SDS011;5021;51.506;11.320;2023-01-05T03:19:54;10.63;;;4.30;;
9960;SDS011;5021;51.506;11.320;2023-01-05T03:22:25;11.63;;;4.20;;
9960;SDS011;5021;51.506;11.320;2023-01-05T03:25:11;9.50;;;3.43;;
9960;SDS011;5021;51.506;11.320;2023-01-05T03:27:57;11.60;;;3.77;;
9960;SDS011;5021;51.506;11.320;2023-01-05T03:36:40;9.47;;;3.63;;
9960;SDS011;5021;51.506;11.320;2023-01-05T03:39:07;10.77;;;3.97;;
9960;SDS011;5021;51.506;11.320;2023-01-05T03:41:34;13.10;;;4.40;;
9960;SDS011;5021;51.506;11.320;2023-01-05T03:44:01;7.50;;;3.20;;
9960;SDS011;5021;51.506;11.320;2023-01-05T03:46:27;9.07;;;4.00;;
9960;SDS011;5021;51.506;11.320;2023-01-05T03:48:53;8.57;;;3.67;;
9960;SDS011;5021;51.506;11.320;2023-01-05T03:51:19;9.30;;;2.90;;
9960;SDS011;5021;51.506;11.320;2023-01-05T03:53:45;7.17;;;3.20;;
9960;SDS011;5021;51.506;11.320;2023-01-05T03:56:11;7.87;;;3.20;;
9960;SDS011;5021;51.506;11.320;2023-01-05T03:58:36;8.20;;;3.00;;
9960;SDS011;5021;51.506;11.320;2023-01-05T04:01:03;7.97;;;3.60;;
9960;SDS011;5021;51.506;11.320;2023-01-05T04:03:29;12.57;;;3.60;;
9960;SDS011;5021;51.506;11.320;2023-01-05T04:05:55;7.90;;;3.40;;
9960;SDS011;5021;51.506;11.320;2023-01-05T04:08:21;11.00;;;3.67;;
9960;SDS011;5021;51.506;11.320;2023-01-05T04:10:47;13.00;;;4.10;;
9960;SDS011;5021;51.506;11.320;2023-01-05T04:13:12;8.03;;;3.97;;
9960;SDS011;5021;51.506;11.320;2023-01-05T04:15:39;17.40;;;3.90;;
9960;SDS011;5021;51.506;11.320;2023-01-05T04:18:05;12.27;;;4.10;;
9960;SDS011;5021;51.506;11.320;2023-01-05T04:20:31;13.53;;;3.80;;
9960;SDS011;5021;51.506;11.320;2023-01-05T04:22:57;10.13;;;3.97;;
9960;SDS011;5021;51.506;11.320;2023-01-05T04:25:23;8.00;;;3.73;;
9960;SDS011;5021;51.506;11.320;2023-01-05T04:27:48;13.20;;;3.93;;
9960;SDS011;5021;51.506;11.320;2023-01-05T04:30:14;8.97;;;3.40;;
9960;SDS011;5021;51.506;11.320;2023-01-05T04:32:40;11.47;;;3.87;;
9960;SDS011;5021;51.506;11.320;2023-01-05T04:35:06;10.40;;;3.60;;
9960;SDS011;5021;51.506;11.320;2023-01-05T04:37:32;11.53;;;4.20;;
9960;SDS011;5021;51.506;11.320;2023-01-05T04:39:58;9.67;;;3.70;;
9960;SDS011;5021;51.506;11.320;2023-01-05T04:42:24;12.67;;;4.00;;
9960;SDS011;5021;51.506;11.320;2023-01-05T04:44:50;8.60;;;3.30;;
9960;SDS011;5021;51.506;11.320;2023-01-05T04:47:16;8.43;;;3.90;;
9960;SDS011;5021;51.506;11.320;2023-01-05T04:49:42;10.60;;;3.50;;
9960;SDS011;5021;51.506;11.320;2023-01-05T04:52:08;8.40;;;3.60;;
9960;SDS011;5021;51.506;11.320;2023-01-05T04:54:34;11.23;;;3.53;;
9960;SDS011;5021;51.506;11.320;2023-01-05T04:57:00;14.60;;;4.27;;
9960;SDS011;5021;51.506;11.320;2023-01-05T04:59:28;10.50;;;3.97;;
9960;SDS011;5021;51.506;11.320;2023-01-05T05:01:54;10.73;;;3.77;;
9960;SDS011;5021;51.506;11.320;2023-01-05T05:04:19;11.83;;;3.67;;
9960;SDS011;5021;51.506;11.320;2023-01-05T05:06:45;10.40;;;4.03;;
9960;SDS011;5021;51.506;11.320;2023-01-05T05:09:11;10.67;;;4.03;;
9960;SDS011;5021;51.506;11.320;2023-01-05T05:11:37;13.10;;;4.43;;
9960;SDS011;5021;51.506;11.320;2023-01-05T05:14:03;9.43;;;3.33;;
9960;SDS011;5021;51.506;11.320;2023-01-05T05:16:29;9.07;;;3.80;;
9960;SDS011;5021;51.506;11.320;2023-01-05T05:18:55;8.83;;;3.77;;
9960;SDS011;5021;51.506;11.320;2023-01-05T05:21:21;7.90;;;3.73;;
9960;SDS011;5021;51.506;11.320;2023-01-05T05:23:47;11.63;;;3.60;;
9960;SDS011;5021;51.506;11.320;2023-01-05T05:26:13;12.13;;;3.83;;
9960;SDS011;5021;51.506;11.320;2023-01-05T05:28:39;9.90;;;4.20;;
9960;SDS011;5021;51.506;11.320;2023-01-05T05:31:05;9.57;;;3.70;;
9960;SDS011;5021;51.506;11.320;2023-01-05T05:33:30;11.70;;;4.73;;
9960;SDS011;5021;51.506;11.320;2023-01-05T05:35:56;11.13;;;3.90;;
9960;SDS011;5021;51.506;11.320;2023-01-05T05:38:22;11.87;;;3.67;;
9960;SDS011;5021;51.506;11.320;2023-01-05T05:40:48;10.13;;;3.60;;
9960;SDS011;5021;51.506;11.320;2023-01-05T05:43:14;12.87;;;3.63;;
9960;SDS011;5021;51.506;11.320;2023-01-05T05:45:40;11.70;;;3.50;;
9960;SDS011;5021;51.506;11.320;2023-01-05T05:48:06;13.80;;;4.10;;
9960;SDS011;5021;51.506;11.320;2023-01-05T05:50:32;8.60;;;3.53;;
9960;SDS011;5021;51.506;11.320;2023-01-05T05:52:58;13.17;;;4.03;;
9960;SDS011;5021;51.506;11.320;2023-01-05T05:55:24;8.80;;;3.27;;
9960;SDS011;5021;51.506;11.320;2023-01-05T05:57:50;10.90;;;3.63;;
9960;SDS011;5021;51.506;11.320;2023-01-05T06:00:16;11.87;;;3.53;;
9960;SDS011;5021;51.506;11.320;2023-01-05T06:02:42;11.43;;;4.37;;
9960;SDS011;5021;51.506;11.320;2023-01-05T06:05:08;13.63;;;3.67;;
9960;SDS011;5021;51.506;11.320;2023-01-05T06:07:34;11.00;;;3.83;;
9960;SDS011;5021;51.506;11.320;2023-01-05T06:10:00;8.60;;;3.00;;
9960;SDS011;5021;51.506;11.320;2023-01-05T06:12:26;8.93;;;3.10;;
9960;SDS011;5021;51.506;11.320;2023-01-05T06:14:52;9.83;;;3.50;;
9960;SDS011;5021;51.506;11.320;2023-01-05T06:17:17;10.83;;;3.00;;
9960;SDS011;5021;51.506;11.320;2023-01-05T06:19:43;9.57;;;3.00;;
9960;SDS011;5021;51.506;11.320;2023-01-05T06:22:09;8.60;;;3.53;;
9960;SDS011;5021;51.506;11.320;2023-01-05T06:24:35;9.40;;;3.20;;
9960;SDS011;5021;51.506;11.320;2023-01-05T06:27:01;8.03;;;3.03;;
9960;SDS011;5021;51.506;11.320;2023-01-05T06:29:27;9.83;;;3.27;;
9960;SDS011;5021;51.506;11.320;2023-01-05T06:31:53;8.00;;;2.90;;
9960;SDS011;5021;51.506;11.320;2023-01-05T06:34:19;7.53;;;2.67;;
9960;SDS011;5021;51.506;11.320;2023-01-05T06:36:45;11.77;;;3.53;;
9960;SDS011;5021;51.506;11.320;2023-01-05T06:39:11;9.47;;;3.60;;
9960;SDS011;5021;51.506;11.320;2023-01-05T06:41:36;7.77;;;3.27;;
9960;SDS011;5021;51.506;11.320;2023-01-05T06:44:02;12.43;;;3.47;;
9960;SDS011;5021;51.506;11.320;2023-01-05T06:46:29;8.50;;;3.60;;
9960;SDS011;5021;51.506;11.320;2023-01-05T06:48:55;11.43;;;3.23;;
9960;SDS011;5021;51.506;11.320;2023-01-05T06:51:21;7.80;;;3.17;;
9960;SDS011;5021;51.506;11.320;2023-01-05T06:53:47;9.00;;;4.13;;
9960;SDS011;5021;51.506;11.320;2023-01-05T06:56:13;10.73;;;3.57;;
9960;SDS011;5021;51.506;11.320;2023-01-05T06:58:39;11.73;;;3.60;;
9960;SDS011;5021;51.506;11.320;2023-01-05T07:01:05;11.77;;;3.90;;
9960;SDS011;5021;51.506;11.320;2023-01-05T07:03:30;9.00;;;3.43;;
9960;SDS011;5021;51.506;11.320;2023-01-05T07:05:56;7.20;;;3.10;;
9960;SDS011;5021;51.506;11.320;2023-01-05T07:08:22;11.67;;;3.70;;
9960;SDS011;5021;51.506;11.320;2023-01-05T07:10:48;6.57;;;2.97;;
9960;SDS011;5021;51.506;11.320;2023-01-05T07:13:14;8.10;;;2.97;;
9960;SDS011;5021;51.506;11.320;2023-01-05T07:15:40;8.83;;;3.53;;
9960;SDS011;5021;51.506;11.320;2023-01-05T07:18:06;9.27;;;3.73;;
9960;SDS011;5021;51.506;11.320;2023-01-05T07:20:32;11.00;;;3.93;;
9960;SDS011;5021;51.506;11.320;2023-01-05T07:22:58;8.20;;;3.63;;
9960;SDS011;5021;51.506;11.320;2023-01-05T07:25:23;9.83;;;3.70;;
9960;SDS011;5021;51.506;11.320;2023-01-05T07:27:55;10.10;;;3.53;;
9960;SDS011;5021;51.506;11.320;2023-01-05T07:30:21;9.30;;;3.37;;
9960;SDS011;5021;51.506;11.320;2023-01-05T07:32:47;11.27;;;3.97;;
9960;SDS011;5021;51.506;11.320;2023-01-05T07:35:13;7.97;;;3.20;;
9960;SDS011;5021;51.506;11.320;2023-01-05T07:37:38;8.53;;;3.13;;
9960;SDS011;5021;51.506;11.320;2023-01-05T07:40:04;11.43;;;4.50;;
9960;SDS011;5021;51.506;11.320;2023-01-05T07:42:31;9.43;;;3.33;;
9960;SDS011;5021;51.506;11.320;2023-01-05T07:44:57;9.70;;;3.63;;
9960;SDS011;5021;51.506;11.320;2023-01-05T07:47:23;8.13;;;3.53;;
9960;SDS011;5021;51.506;11.320;2023-01-05T07:49:49;8.13;;;3.10;;
9960;SDS011;5021;51.506;11.320;2023-01-05T07:52:15;11.17;;;3.30;;
9960;SDS011;5021;51.506;11.320;2023-01-05T07:54:41;7.33;;;3.20;;
9960;SDS011;5021;51.506;11.320;2023-01-05T07:57:07;8.57;;;3.40;;
9960;SDS011;5021;51.506;11.320;2023-01-05T07:59:33;6.73;;;3.13;;
9960;SDS011;5021;51.506;11.320;2023-01-05T08:01:59;7.40;;;3.00;;
9960;SDS011;5021;51.506;11.320;2023-01-05T08:04:25;7.43;;;3.10;;
9960;SDS011;5021;51.506;11.320;2023-01-05T08:06:51;10.20;;;3.63;;
9960;SDS011;5021;51.506;11.320;2023-01-05T08:09:17;10.30;;;3.30;;
9960;SDS011;5021;51.506;11.320;2023-01-05T08:12:01;7.90;;;3.40;;
9960;SDS011;5021;51.506;11.320;2023-01-05T08:14:27;9.70;;;2.93;;
9960;SDS011;5021;51.506;11.320;2023-01-05T08:16:53;9.27;;;3.27;;
9960;SDS011;5021;51.506;11.320;2023-01-05T08:19:19;7.63;;;3.20;;
9960;SDS011;5021;51.506;11.320;2023-01-05T08:21:45;7.73;;;3.17;;
9960;SDS011;5021;51.506;11.320;2023-01-05T08:24:11;7.77;;;3.10;;
9960;SDS011;5021;51.506;11.320;2023-01-05T08:26:37;4.97;;;3.00;;
9960;SDS011;5021;51.506;11.320;2023-01-05T08:29:03;7.13;;;3.33;;
9960;SDS011;5021;51.506;11.320;2023-01-05T08:31:30;9.20;;;3.30;;
9960;SDS011;5021;51.506;11.320;2023-01-05T08:34:01;9.73;;;3.40;;
9960;SDS011;5021;51.506;11.320;2023-01-05T08:36:27;9.07;;;3.17;;
9960;SDS011;5021;51.506;11.320;2023-01-05T08:38:55;9.73;;;3.17;;
9960;SDS011;5021;51.506;11.320;2023-01-05T08:41:25;6.70;;;2.70;;
9960;SDS011;5021;51.506;11.320;2023-01-05T08:43:53;7.63;;;2.93;;
9960;SDS011;5021;51.506;11.320;2023-01-05T08:46:19;7.77;;;3.17;;
9960;SDS011;5021;51.506;11.320;2023-01-05T08:48:49;7.50;;;3.27;;
9960;SDS011;5021;51.506;11.320;2023-01-05T08:51:15;6.90;;;3.30;;
9960;SDS011;5021;51.506;11.320;2023-01-05T08:53:41;9.73;;;2.83;;
9960;SDS011;5021;51.506;11.320;2023-01-05T08:56:07;6.53;;;2.93;;
9960;SDS011;5021;51.506;11.320;2023-01-05T08:58:34;7.37;;;2.97;;
9960;SDS011;5021;51.506;11.320;2023-01-05T09:01:04;9.40;;;2.77;;
9960;SDS011;5021;51.506;11.320;2023-01-05T09:03:30;9.73;;;3.33;;
9960;SDS011;5021;51.506;11.320;2023-01-05T09:05:56;5.33;;;2.60;;
9960;SDS011;5021;51.506;11.320;2023-01-05T09:08:26;6.30;;;2.80;;
9960;SDS011;5021;51.506;11.320;2023-01-05T09:10:52;4.20;;;2.17;;
9960;SDS011;5021;51.506;11.320;2023-01-05T09:13:18;4.20;;;2.20;;
9960;SDS011;5021;51.506;11.320;2023-01-05T09:15:44;5.30;;;2.43;;
9960;SDS011;5021;51.506;11.320;2023-01-05T09:18:09;7.27;;;2.57;;
9960;SDS011;5021;51.506;11.320;2023-01-05T09:20:35;4.60;;;2.33;;
9960;SDS011;5021;51.506;11.320;2023-01-05T09:23:01;6.40;;;2.70;;
9960;SDS011;5021;51.506;11.320;2023-01-05T09:25:27;6.90;;;2.50;;
9960;SDS011;5021;51.506;11.320;2023-01-05T09:27:53;5.30;;;2.60;;
9960;SDS011;5021;51.506;11.320;2023-01-05T09:30:19;5.27;;;2.53;;
9960;SDS011;5021;51.506;11.320;2023-01-05T09:32:45;5.50;;;2.63;;
9960;SDS011;5021;51.506;11.320;2023-01-05T09:35:11;7.47;;;2.27;;
9960;SDS011;5021;51.506;11.320;2023-01-05T09:37:37;6.50;;;2.90;;
9960;SDS011;5021;51.506;11.320;2023-01-05T09:40:03;6.43;;;2.30;;
9960;SDS011;5021;51.506;11.320;2023-01-05T09:42:29;6.20;;;3.00;;
9960;SDS011;5021;51.506;11.320;2023-01-05T09:44:59;6.83;;;3.00;;
9960;SDS011;5021;51.506;11.320;2023-01-05T09:47:35;6.27;;;2.50;;
9960;SDS011;5021;51.506;11.320;2023-01-05T09:50:06;4.90;;;2.40;;
9960;SDS011;5021;51.506;11.320;2023-01-05T09:52:33;6.50;;;2.80;;
9960;SDS011;5021;51.506;11.320;2023-01-05T09:55:01;4.13;;;2.40;;
9960;SDS011;5021;51.506;11.320;2023-01-05T09:57:27;5.60;;;3.07;;
9960;SDS011;5021;51.506;11.320;2023-01-05T09:59:55;5.43;;;2.70;;
9960;SDS011;5021;51.506;11.320;2023-01-05T10:04:54;5.00;;;2.80;;
9960;SDS011;5021;51.506;11.320;2023-01-05T10:07:29;5.17;;;2.37;;
9960;SDS011;5021;51.506;11.320;2023-01-05T10:09:57;3.80;;;2.40;;
9960;SDS011;5021;51.506;11.320;2023-01-05T10:12:30;5.83;;;2.37;;
9960;SDS011;5021;51.506;11.320;2023-01-05T10:15:16;6.73;;;2.40;;
9960;SDS011;5021;51.506;11.320;2023-01-05T10:17:43;4.83;;;2.00;;
9960;SDS011;5021;51.506;11.320;2023-01-05T10:20:12;2.40;;;1.83;;
9960;SDS011;5021;51.506;11.320;2023-01-05T10:22:43;5.40;;;2.17;;
9960;SDS011;5021;51.506;11.320;2023-01-05T10:25:16;3.87;;;1.90;;
9960;SDS011;5021;51.506;11.320;2023-01-05T10:28:00;4.93;;;2.13;;
9960;SDS011;5021;51.506;11.320;2023-01-05T10:30:42;4.17;;;2.33;;
9960;SDS011;5021;51.506;11.320;2023-01-05T10:38:12;3.57;;;2.30;;
9960;SDS011;5021;51.506;11.320;2023-01-05T10:40:45;3.93;;;2.00;;
9960;SDS011;5021;51.506;11.320;2023-01-05T10:45:41;4.47;;;1.97;;
9960;SDS011;5021;51.506;11.320;2023-01-05T10:48:14;3.30;;;1.77;;
9960;SDS011;5021;51.506;11.320;2023-01-05T10:50:41;3.93;;;2.30;;
9960;SDS011;5021;51.506;11.320;2023-01-05T10:55:42;5.17;;;2.50;;
9960;SDS011;5021;51.506;11.320;2023-01-05T10:58:19;4.17;;;2.43;;
9960;SDS011;5021;51.506;11.320;2023-01-05T11:00:45;3.00;;;2.10;;
9960;SDS011;5021;51.506;11.320;2023-01-05T11:03:12;3.20;;;2.40;;
9960;SDS011;5021;51.506;11.320;2023-01-05T11:05:46;5.77;;;2.57;;
9960;SDS011;5021;51.506;11.320;2023-01-05T11:08:17;4.70;;;2.70;;
9960;SDS011;5021;51.506;11.320;2023-01-05T11:10:50;4.50;;;2.37;;
9960;SDS011;5021;51.506;11.320;2023-01-05T11:13:18;4.50;;;2.30;;
9960;SDS011;5021;51.506;11.320;2023-01-05T11:15:49;5.20;;;2.63;;
9960;SDS011;5021;51.506;11.320;2023-01-05T11:18:22;4.70;;;2.27;;
9960;SDS011;5021;51.506;11.320;2023-01-05T11:21:08;5.30;;;2.73;;
9960;SDS011;5021;51.506;11.320;2023-01-05T11:23:39;4.67;;;2.13;;
9960;SDS011;5021;51.506;11.320;2023-01-05T11:28:53;5.10;;;2.60;;
9960;SDS011;5021;51.506;11.320;2023-01-05T11:31:21;4.40;;;2.33;;
9960;SDS011;5021;51.506;11.320;2023-01-05T11:33:47;4.43;;;2.50;;
9960;SDS011;5021;51.506;11.320;2023-01-05T11:36:20;3.60;;;2.20;;
9960;SDS011;5021;51.506;11.320;2023-01-05T11:38:49;4.37;;;1.93;;
9960;SDS011;5021;51.506;11.320;2023-01-05T11:41:16;4.37;;;1.80;;
9960;SDS011;5021;51.506;11.320;2023-01-05T11:43:42;4.70;;;2.10;;
9960;SDS011;5021;51.506;11.320;2023-01-05T11:46:11;4.50;;;2.00;;
9960;SDS011;5021;51.506;11.320;2023-01-05T11:48:38;6.67;;;2.47;;
9960;SDS011;5021;51.506;11.320;2023-01-05T11:51:06;4.43;;;2.07;;
9960;SDS011;5021;51.506;11.320;2023-01-05T11:56:20;4.93;;;2.23;;
9960;SDS011;5021;51.506;11.320;2023-01-05T11:58:45;5.23;;;2.20;;
9960;SDS011;5021;51.506;11.320;2023-01-05T12:01:16;6.60;;;2.27;;
9960;SDS011;5021;51.506;11.320;2023-01-05T12:08:57;3.77;;;2.13;;
9960;SDS011;5021;51.506;11.320;2023-01-05T12:11:24;4.77;;;2.37;;
9960;SDS011;5021;51.506;11.320;2023-01-05T12:14:07;5.03;;;2.37;;
9960;SDS011;5021;51.506;11.320;2023-01-05T12:16:45;7.43;;;2.40;;
9960;SDS011;5021;51.506;11.320;2023-01-05T12:19:19;6.70;;;2.70;;
9960;SDS011;5021;51.506;11.320;2023-01-05T12:26:41;5.90;;;2.57;;
9960;SDS011;5021;51.506;11.320;2023-01-05T12:29:30;7.03;;;2.70;;
9960;SDS011;5021;51.506;11.320;2023-01-05T12:40:08;7.40;;;2.47;;
9960;SDS011;5021;51.506;11.320;2023-01-05T12:47:54;6.43;;;2.37;;
9960;SDS011;5021;51.506;11.320;2023-01-05T12:52:47;4.70;;;1.90;;
9960;SDS011;5021;51.506;11.320;2023-01-05T12:55:16;5.13;;;2.17;;
9960;SDS011;5021;51.506;11.320;2023-01-05T12:57:50;6.23;;;2.73;;
9960;SDS011;5021;51.506;11.320;2023-01-05T13:00:21;4.50;;;2.40;;
9960;SDS011;5021;51.506;11.320;2023-01-05T13:02:57;5.90;;;3.20;;
9960;SDS011;5021;51.506;11.320;2023-01-05T13:05:30;3.50;;;2.27;;
9960;SDS011;5021;51.506;11.320;2023-01-05T13:08:11;4.57;;;2.50;;
9960;SDS011;5021;51.506;11.320;2023-01-05T13:10:55;3.43;;;2.20;;
9960;SDS011;5021;51.506;11.320;2023-01-05T13:13:29;6.33;;;2.83;;
9960;SDS011;5021;51.506;11.320;2023-01-05T13:18:43;8.50;;;3.40;;
9960;SDS011;5021;51.506;11.320;2023-01-05T13:21:12;4.57;;;2.67;;
9960;SDS011;5021;51.506;11.320;2023-01-05T13:23:43;4.80;;;3.03;;
9960;SDS011;5021;51.506;11.320;2023-01-05T13:26:13;7.40;;;3.33;;
9960;SDS011;5021;51.506;11.320;2023-01-05T13:28:40;6.97;;;2.97;;
9960;SDS011;5021;51.506;11.320;2023-01-05T13:36:37;6.80;;;3.37;;
9960;SDS011;5021;51.506;11.320;2023-01-05T13:39:13;6.97;;;2.50;;
9960;SDS011;5021;51.506;11.320;2023-01-05T13:51:57;5.87;;;2.63;;
9960;SDS011;5021;51.506;11.320;2023-01-05T13:56:50;4.40;;;2.07;;
9960;SDS011;5021;51.506;11.320;2023-01-05T14:01:45;6.63;;;2.20;;
9960;SDS011;5021;51.506;11.320;2023-01-05T14:04:16;5.27;;;2.00;;
9960;SDS011;5021;51.506;11.320;2023-01-05T14:06:43;7.27;;;2.50;;
9960;SDS011;5021;51.506;11.320;2023-01-05T14:09:14;4.20;;;2.10;;
9960;SDS011;5021;51.506;11.320;2023-01-05T14:12:22;6.60;;;2.10;;
9960;SDS011;5021;51.506;11.320;2023-01-05T14:22:53;4.90;;;2.07;;
9960;SDS011;5021;51.506;11.320;2023-01-05T14:28:38;5.63;;;2.10;;
9960;SDS011;5021;51.506;11.320;2023-01-05T14:33:47;2.80;;;2.00;;
9960;SDS011;5021;51.506;11.320;2023-01-05T14:38:59;4.07;;;1.97;;
9960;SDS011;5021;51.506;11.320;2023-01-05T14:41:26;4.80;;;2.37;;
9960;SDS011;5021;51.506;11.320;2023-01-05T14:43:56;5.13;;;2.77;;
9960;SDS011;5021;51.506;11.320;2023-01-05T14:46:23;3.80;;;2.20;;
9960;SDS011;5021;51.506;11.320;2023-01-05T14:48:58;5.10;;;2.17;;
9960;SDS011;5021;51.506;11.320;2023-01-05T14:51:25;3.27;;;1.90;;
9960;SDS011;5021;51.506;11.320;2023-01-05T14:53:54;4.67;;;2.30;;
9960;SDS011;5021;51.506;11.320;2023-01-05T14:56:22;4.73;;;2.57;;
9960;SDS011;5021;51.506;11.320;2023-01-05T14:58:51;5.97;;;2.83;;
9960;SDS011;5021;51.506;11.320;2023-01-05T15:04:04;4.90;;;2.60;;
9960;SDS011;5021;51.506;11.320;2023-01-05T15:19:35;10.10;;;5.17;;
9960;SDS011;5021;51.506;11.320;2023-01-05T15:24:55;8.73;;;4.33;;
9960;SDS011;5021;51.506;11.320;2023-01-05T15:27:28;6.37;;;3.33;;
9960;SDS011;5021;51.506;11.320;2023-01-05T15:30:20;7.10;;;4.03;;
9960;SDS011;5021;51.506;11.320;2023-01-05T15:32:58;7.67;;;4.30;;
9960;SDS011;5021;51.506;11.320;2023-01-05T15:35:39;8.83;;;6.13;;
9960;SDS011;5021;51.506;11.320;2023-01-05T15:38:26;9.43;;;5.70;;
9960;SDS011;5021;51.506;11.320;2023-01-05T15:41:15;4.77;;;3.90;;
9960;SDS011;5021;51.506;11.320;2023-01-05T15:43:39;5.77;;;4.00;;
9960;SDS011;5021;51.506;11.320;2023-01-05T15:46:05;7.40;;;5.43;;
9960;SDS011;5021;51.506;11.320;2023-01-05T15:48:34;6.87;;;5.53;;
9960;SDS011;5021;51.506;11.320;2023-01-05T15:51:00;7.27;;;5.27;;
9960;SDS011;5021;51.506;11.320;2023-01-05T15:53:28;8.33;;;3.93;;
9960;SDS011;5021;51.506;11.320;2023-01-05T15:55:55;6.77;;;3.40;;
9960;SDS011;5021;51.506;11.320;2023-01-05T15:58:22;6.60;;;3.70;;
9960;SDS011;5021;51.506;11.320;2023-01-05T16:03:26;4.83;;;3.10;;
9960;SDS011;5021;51.506;11.320;2023-01-05T16:05:56;5.60;;;3.97;;
9960;SDS011;5021;51.506;11.320;2023-01-05T16:08:23;8.03;;;3.60;;
9960;SDS011;5021;51.506;11.320;2023-01-05T16:10:55;6.43;;;3.90;;
9960;SDS011;5021;51.506;11.320;2023-01-05T16:16:12;6.47;;;3.43;;
9960;SDS011;5021;51.506;11.320;2023-01-05T16:18:39;3.97;;;2.73;;
9960;SDS011;5021;51.506;11.320;2023-01-05T16:21:11;7.73;;;3.47;;
9960;SDS011;5021;51.506;11.320;2023-01-05T16:23:39;4.10;;;3.33;;
9960;SDS011;5021;51.506;11.320;2023-01-05T16:26:10;6.53;;;3.53;;
9960;SDS011;5021;51.506;11.320;2023-01-05T16:28:37;6.83;;;3.43;;
9960;SDS011;5021;51.506;11.320;2023-01-05T16:31:11;5.87;;;4.07;;
9960;SDS011;5021;51.506;11.320;2023-01-05T16:33:37;8.67;;;5.13;;
9960;SDS011;5021;51.506;11.320;2023-01-05T16:36:17;6.77;;;5.40;;
9960;SDS011;5021;51.506;11.320;2023-01-05T16:38:43;7.20;;;6.10;;
9960;SDS011;5021;51.506;11.320;2023-01-05T16:51:06;6.57;;;5.20;;
9960;SDS011;5021;51.506;11.320;2023-01-05T16:53:32;5.53;;;4.50;;
9960;SDS011;5021;51.506;11.320;2023-01-05T16:56:00;7.03;;;4.73;;
9960;SDS011;5021;51.506;11.320;2023-01-05T17:03:39;8.23;;;4.70;;
9960;SDS011;5021;51.506;11.320;2023-01-05T17:06:07;6.80;;;4.30;;
9960;SDS011;5021;51.506;11.320;2023-01-05T17:08:37;8.07;;;4.97;;
9960;SDS011;5021;51.506;11.320;2023-01-05T17:11:06;5.20;;;4.50;;
9960;SDS011;5021;51.506;11.320;2023-01-05T17:13:36;7.20;;;3.20;;
9960;SDS011;5021;51.506;11.320;2023-01-05T17:16:02;7.53;;;3.80;;
9960;SDS011;5021;51.506;11.320;2023-01-05T17:18:29;6.57;;;3.50;;
9960;SDS011;5021;51.506;11.320;2023-01-05T17:20:56;9.53;;;5.33;;
9960;SDS011;5021;51.506;11.320;2023-01-05T17:23:24;7.57;;;6.10;;
9960;SDS011;5021;51.506;11.320;2023-01-05T17:25:50;9.80;;;5.10;;
9960;SDS011;5021;51.506;11.320;2023-01-05T17:28:17;5.40;;;3.47;;
9960;SDS011;5021;51.506;11.320;2023-01-05T17:30:46;6.40;;;3.47;;